| Time | Avg. Air Temp | Dew Point | Avg. Rel Humidity | Avg. 2 Min Wind Speed | Max Gust Velocity | MGV Time | MGV Direction | Avg. Spot Wind Velocity |
|---|---|---|---|---|---|---|---|---|
| 2026-05-03 14:40:00 | 6° C | -3° C | 51% | 6 km/h | 11 km/h | 14:39:00 | N | 6 km/h |
| 13:40:00 | 6° C | -3° C | 52% | 15 km/h | 19 km/h | 13:37:00 | NW | 16 km/h |
| 12:40:00 | 5° C | -4° C | 52% | 15 km/h | 22 km/h | 12:36:00 | NW | 16 km/h |
| 11:40:00 | 5° C | -5° C | 48% | 10 km/h | 13 km/h | 11:40:00 | NW | 9 km/h |
| 10:40:00 | 4° C | -5° C | 51% | 5 km/h | 12 km/h | 10:37:00 | N | 5 km/h |
| 09:40:00 | 4° C | -6° C | 51% | 10 km/h | 14 km/h | 09:39:00 | NW | 8 km/h |
| 08:40:00 | 4° C | -6° C | 50% | 5 km/h | 11 km/h | 08:39:00 | NE | 8 km/h |
| 07:40:00 | 3° C | -6° C | 50% | 17 km/h | 20 km/h | 07:36:00 | NW | 17 km/h |
| 06:40:00 | 3° C | -6° C | 51% | 18 km/h | 22 km/h | 06:38:00 | NW | 17 km/h |
| 05:40:00 | 3° C | -6° C | 51% | 18 km/h | 21 km/h | 05:37:00 | W | 17 km/h |
| 04:40:00 | 3° C | -6° C | 51% | 19 km/h | 22 km/h | 04:40:00 | NW | 18 km/h |
| 03:40:00 | 3° C | -6° C | 51% | 15 km/h | 18 km/h | 03:36:00 | W | 16 km/h |
| 02:40:00 | 4° C | -6° C | 49% | 17 km/h | 22 km/h | 02:36:00 | W | 19 km/h |
| 01:40:00 | 4° C | -6° C | 47% | 16 km/h | 23 km/h | 01:36:00 | NW | 18 km/h |
| 00:40:00 | 5° C | -6° C | 46% | 18 km/h | 20 km/h | 00:40:00 | NW | 17 km/h |
| 23:40:00 | 5° C | -6° C | 45% | 18 km/h | 22 km/h | 23:36:00 | NW | 16 km/h |
| 22:40:00 | 5° C | -6° C | 45% | 20 km/h | 25 km/h | 22:36:00 | NW | 22 km/h |
| 21:40:00 | 5° C | -6° C | 42% | 22 km/h | 25 km/h | 21:38:00 | NW | 21 km/h |
| 20:40:00 | 5° C | -6° C | 43% | 9 km/h | 17 km/h | 20:38:00 | NW | 13 km/h |
| 19:40:00 | 6° C | -6° C | 43% | 8 km/h | 15 km/h | 19:37:00 | NW | 10 km/h |
| 18:40:00 | 6° C | -6° C | 44% | 6 km/h | 13 km/h | 18:39:00 | NE | 6 km/h |
| 17:40:00 | 6° C | -6° C | 43% | 11 km/h | 17 km/h | 17:37:00 | W | 12 km/h |
| 16:40:00 | 6° C | -4° C | 46% | 13 km/h | 19 km/h | 16:38:00 | W | 12 km/h |
| 15:40:00 | 5° C | -5° C | 50% | 14 km/h | 23 km/h | 15:38:00 | NW | 15 km/h |
Subpeak Weather
| Time | Avg. Air Temp | Dew Point | Avg. Rel Humidity | Avg. 2 Min Wind Speed | Max Gust Velocity | MGV Time | MGV Direction | Avg. Spot Wind Velocity |
|---|---|---|---|---|---|---|---|---|
| 2026-05-03 14:40:00 | 6° C | -3° C | 51% | 6 km/h | 11 km/h | 14:39:00 | N | 6 km/h |
| 14:35:00 | 6° C | -3° C | 52% | 2 km/h | 12 km/h | 14:32:00 | N | 3 km/h |
| 14:30:00 | 6° C | -3° C | 52% | 4 km/h | 19 km/h | 14:27:00 | N | 7 km/h |
| 14:25:00 | 6° C | -3° C | 52% | 4 km/h | 25 km/h | 14:23:00 | N | 7 km/h |
| 14:20:00 | 6° C | -3° C | 52% | 12 km/h | 23 km/h | 14:17:00 | N | 14 km/h |
| 14:15:00 | 6° C | -3° C | 52% | 19 km/h | 25 km/h | 14:13:00 | NW | 18 km/h |
| 14:10:00 | 6° C | -3° C | 51% | 10 km/h | 25 km/h | 14:07:00 | N | 15 km/h |
| 14:05:00 | 6° C | -3° C | 53% | 14 km/h | 25 km/h | 14:05:00 | NW | 15 km/h |
| 14:00:00 | 6° C | -3° C | 52% | 9 km/h | 26 km/h | 13:58:00 | NE | 15 km/h |
| 13:55:00 | 6° C | -3° C | 51% | 10 km/h | 17 km/h | 13:55:00 | W | 8 km/h |
| 13:50:00 | 6° C | -3° C | 50% | 14 km/h | 19 km/h | 13:46:00 | NW | 13 km/h |
| 13:45:00 | 6° C | -4° C | 51% | 16 km/h | 22 km/h | 13:44:00 | NW | 17 km/h |
| 13:40:00 | 6° C | -3° C | 52% | 15 km/h | 19 km/h | 13:37:00 | NW | 16 km/h |




